Huvudsida
METAR-TAF:

METAR-TAF

Flygplatser :

Sjeremetevos internationella flygplats

Moskva-Sjeremetievo, Ryssland

latitud: 55-58N, longitud: 037-25E, höjd: 190 m

Aktuellt väderrapport

Denna rapport gjordes för 35 minuter sedan, klockan 14:00 UTC
Vind 6 kt från syd/sydväst
Temperatur 1°C
Fuktighet 47%
Tryck 1044 hPa
Sikt 10 km eller mer
Inga moln under 1 500 m eller inga cumulonimbus

METAR: UUEE 161400Z 20003MPS CAVOK 01/M09 Q1044 R24L/150051 R24C/190045 NOSIG

Tid: 17:35 (14:35 UTC)

Väderprognos

Denna rapport gjordes för 3 timmar och 35 minuter sedan, klockan 11:00 UTC
Prognos gäller från 16 kl. 12 UTC till 17 kl. 12 UTC
Vind 8 kt från syd/sydväst
Sikt: 9000 m
Spridda moln på en höjd av 3000 ft

TAF: UUEE 161100Z 1612/1712 20004MPS 9000 SCT030 TX00/1612Z TNM07/1703Z

Aktuella väderrapporter och prognoser från 4000 flygplatser (METAR- och TAF-rapporter).

De tillgängliga stationerna syns som gula och röda prickar på kartan.

För musen över prickarna för att se namnen på stationerna.

Klicka sedan för att få väderrapporter och prognoser.

För att ändra kartan: Klicka på de gröna knapparna med ett svart kors på för att zooma in; den gröna knappen med ett streck på för att zooma ut; eller på de gröna pilarna för angränsande kartor.


METAR-TAF: